KHLN

Helena Regional Airport

Airport
ICAO code
KHLN
IATA Code
HLN
Summary
ICAO Region
NAM
ICAO Territory
Location

Helena, Montana

Serving
Helena
Elevation
3877 ft
Coordinates
46° 36' 35" N , 111° 59' 24" W
KCC
Airport CFIT
Altimeter Temperature Error Correction
Airport RE
Hot and High Operations
Airport WX
Mountain Waves
Metar
KHLN 210353Z AUTO 27007KT 10SM CLR 06/M07 A3014 RMK AO2 SLP242 T00561067

Helena Regional Airport is a public use airport located 2 nm northeast of the central business district of Helena, a city in Lewis and Clark County, Montana, USA.

 

Airport map

Aerial View

SKYbrary Partners:

Safety knowledge contributed by: